createdAt,value
2022-09-29T00:00:13.427Z,98022.16
2022-09-29T00:00:27.054Z,98024.75
2022-09-29T00:00:39.167Z,98017.03
2022-09-29T00:00:52.800Z,98019.56
2022-09-29T00:01:04.887Z,98024.69
2022-09-29T00:01:16.972Z,98017.72
2022-09-29T00:01:29.010Z,98022.91
2022-09-29T00:01:41.110Z,98020.25
2022-09-29T00:01:53.170Z,98028.94
2022-09-29T00:02:05.236Z,98028.09
2022-09-29T00:02:17.351Z,98019.41
2022-09-29T00:02:29.369Z,98024.59
2022-09-29T00:02:41.424Z,98024.59
2022-09-29T00:02:54.227Z,98022.84
2022-09-29T00:03:07.193Z,98022.75
2022-09-29T00:03:20.307Z,98018.47
2022-09-29T00:03:32.572Z,98027.00
2022-09-29T00:03:44.738Z,98018.34
2022-09-29T00:03:56.837Z,98026.13
2022-09-29T00:04:09.504Z,98023.53
2022-09-29T00:04:21.468Z,98020.94
2022-09-29T00:04:33.429Z,98020.06
2022-09-29T00:04:45.406Z,98025.25
2022-09-29T00:04:57.471Z,98021.81
2022-09-29T00:05:09.512Z,98021.81
2022-09-29T00:05:22.088Z,98024.41
2022-09-29T00:05:35.210Z,98023.59
2022-09-29T00:05:51.962Z,98025.25
2022-09-29T00:06:04.287Z,98027.94
2022-09-29T00:06:18.428Z,98032.19
2022-09-29T00:06:30.551Z,98024.41
2022-09-29T00:06:42.516Z,98030.44
2022-09-29T00:06:54.538Z,98026.19
2022-09-29T00:07:06.496Z,98027.19
2022-09-29T00:07:18.585Z,98025.25
2022-09-29T00:07:32.217Z,98024.41
2022-09-29T00:07:44.634Z,98020.94
2022-09-29T00:07:56.767Z,98017.56
2022-09-29T00:08:08.828Z,98024.50
2022-09-29T00:08:23.337Z,98026.13
2022-09-29T00:08:35.329Z,98027.94
2022-09-29T00:08:47.687Z,98027.19
2022-09-29T00:08:59.707Z,98024.59
2022-09-29T00:09:11.731Z,98029.78
2022-09-29T00:09:23.757Z,98023.66
2022-09-29T00:09:35.745Z,98027.19
2022-09-29T00:09:47.723Z,98024.59
2022-09-29T00:09:59.944Z,98024.59
2022-09-29T00:10:11.996Z,98024.59
2022-09-29T00:10:24.185Z,98027.94
2022-09-29T00:10:40.296Z,98021.06
2022-09-29T00:10:52.398Z,98026.25
2022-09-29T00:11:08.186Z,98027.94
2022-09-29T00:11:20.370Z,98027.94
2022-09-29T00:11:32.588Z,98027.84
2022-09-29T00:11:44.532Z,98026.13
2022-09-29T00:11:56.887Z,98027.78
2022-09-29T00:12:08.878Z,98020.94
2022-09-29T00:12:20.876Z,98027.78
2022-09-29T00:12:32.839Z,98034.66
2022-09-29T00:12:44.957Z,98029.59
2022-09-29T00:12:57.093Z,98027.94
2022-09-29T00:13:09.047Z,98027.94
2022-09-29T00:13:21.587Z,98017.56
2022-09-29T00:13:33.615Z,98020.94
2022-09-29T00:13:47.177Z,98026.13
2022-09-29T00:13:59.196Z,98026.88
2022-09-29T00:14:11.188Z,98026.00
2022-09-29T00:14:24.326Z,98026.75
2022-09-29T00:14:36.396Z,98025.09
2022-09-29T00:14:48.380Z,98023.53
2022-09-29T00:15:00.444Z,98025.34
2022-09-29T00:15:13.810Z,98027.94
2022-09-29T00:15:25.764Z,98024.41
2022-09-29T00:15:37.764Z,98027.94
2022-09-29T00:16:01.020Z,98026.25
2022-09-29T00:16:13.555Z,98029.59
2022-09-29T00:16:25.596Z,98030.44
2022-09-29T00:16:37.694Z,98025.25
2022-09-29T00:16:50.644Z,98024.41
2022-09-29T00:17:02.758Z,98028.69
2022-09-29T00:17:14.935Z,98027.78
2022-09-29T00:17:26.936Z,98019.91
2022-09-29T00:17:38.862Z,98026.75
2022-09-29T00:18:12.716Z,98027.63
2022-09-29T00:18:22.802Z,98023.41
2022-09-29T00:18:35.678Z,98025.94
2022-09-29T00:18:47.772Z,98034.53
2022-09-29T00:18:59.829Z,98021.69
2022-09-29T00:19:11.861Z,98024.28
2022-09-29T00:19:23.823Z,98020.75
2022-09-29T00:19:35.823Z,98020.75
2022-09-29T00:19:48.095Z,98019.91
2022-09-29T00:20:00.258Z,98021.75
2022-09-29T00:20:12.221Z,98027.94
2022-09-29T00:20:24.393Z,98032.38
2022-09-29T00:20:36.912Z,98027.94
2022-09-29T00:20:57.170Z,98028.94
2022-09-29T00:21:19.851Z,98022.00
2022-09-29T00:21:31.868Z,98026.25
2022-09-29T00:21:43.942Z,98027.00
2022-09-29T00:21:55.945Z,98032.28
2022-09-29T00:22:07.936Z,98023.66
2022-09-29T00:22:20.078Z,98029.59
2022-09-29T00:22:32.390Z,98026.13
2022-09-29T00:22:44.352Z,98026.13
2022-09-29T00:22:56.353Z,98018.34
2022-09-29T00:23:08.339Z,98027.78
2022-09-29T00:23:20.301Z,98020.81
2022-09-29T00:23:34.125Z,98024.28
2022-09-29T00:23:46.763Z,98022.59
2022-09-29T00:24:00.924Z,98024.34
2022-09-29T00:24:12.914Z,98031.28
2022-09-29T00:24:25.323Z,98029.53
2022-09-29T00:24:37.420Z,98024.28
2022-09-29T00:24:49.783Z,98029.47
2022-09-29T00:25:01.905Z,98022.44
2022-09-29T00:25:13.972Z,98025.84
2022-09-29T00:25:26.188Z,98019.72
2022-09-29T00:25:38.245Z,98028.38
2022-09-29T00:26:02.513Z,98024.91
2022-09-29T00:26:20.300Z,98026.69
2022-09-29T00:26:32.430Z,98021.50
2022-09-29T00:26:46.667Z,98018.06
2022-09-29T00:26:58.693Z,98024.09
2022-09-29T00:27:10.661Z,98024.09
2022-09-29T00:27:22.676Z,98026.63
2022-09-29T00:27:34.674Z,98021.44
2022-09-29T00:27:46.692Z,98024.03
2022-09-29T00:27:58.793Z,98021.34
2022-09-29T00:28:10.741Z,98023.00
2022-09-29T00:28:22.802Z,98027.38
2022-09-29T00:28:36.571Z,98017.81
2022-09-29T00:28:55.527Z,98029.13
2022-09-29T00:29:07.519Z,98018.75
2022-09-29T00:29:19.501Z,98021.50
2022-09-29T00:29:31.475Z,98017.25
2022-09-29T00:29:43.893Z,98024.09
2022-09-29T00:29:55.840Z,98021.50
2022-09-29T00:30:08.139Z,98019.72
2022-09-29T00:30:20.148Z,98024.09
2022-09-29T00:30:32.085Z,98022.25
2022-09-29T00:30:44.121Z,98027.44
2022-09-29T00:30:59.128Z,98017.06
2022-09-29T00:31:12.386Z,98017.00
2022-09-29T00:31:29.588Z,98026.53
2022-09-29T00:31:41.714Z,98019.59
2022-09-29T00:31:54.199Z,98025.59
2022-09-29T00:32:06.226Z,98015.22
2022-09-29T00:32:18.251Z,98021.25
2022-09-29T00:32:30.262Z,98016.16
2022-09-29T00:32:42.267Z,98020.41
2022-09-29T00:32:54.261Z,98022.09
2022-09-29T00:33:06.277Z,98025.59
2022-09-29T00:33:18.228Z,98016.91
2022-09-29T00:33:32.214Z,98013.38
2022-09-29T00:33:44.348Z,98016.91
2022-09-29T00:33:57.033Z,98017.75
2022-09-29T00:34:09.009Z,98016.91
2022-09-29T00:34:21.058Z,98020.41
2022-09-29T00:34:33.109Z,98020.41
2022-09-29T00:34:45.114Z,98014.31
2022-09-29T00:34:57.538Z,98017.81
2022-09-29T00:35:10.827Z,98015.22
2022-09-29T00:35:22.847Z,98024.09
2022-09-29T00:35:34.840Z,98018.06
2022-09-29T00:36:00.509Z,98021.56
2022-09-29T00:36:15.318Z,98017.25
2022-09-29T00:36:30.950Z,98019.84
2022-09-29T00:36:42.973Z,98014.66
2022-09-29T00:36:54.949Z,98017.25
2022-09-29T00:37:06.982Z,98019.84
2022-09-29T00:37:18.932Z,98017.25
2022-09-29T00:37:31.262Z,98020.59
2022-09-29T00:37:43.343Z,98017.06
2022-09-29T00:37:55.327Z,98018.75
2022-09-29T00:38:07.280Z,98017.81
2022-09-29T00:38:19.217Z,98015.41
2022-09-29T00:38:32.106Z,98016.16
2022-09-29T00:38:46.769Z,98015.22
2022-09-29T00:38:59.588Z,98012.56
2022-09-29T00:39:11.944Z,98015.31
2022-09-29T00:39:23.894Z,98023.00
2022-09-29T00:39:35.977Z,98015.22
2022-09-29T00:39:48.052Z,98017.81
2022-09-29T00:40:01.744Z,98012.72
2022-09-29T00:40:13.946Z,98017.91
2022-09-29T00:40:25.986Z,98020.59
2022-09-29T00:40:38.020Z,98017.25
2022-09-29T00:40:50.070Z,98014.56
2022-09-29T00:41:02.540Z,98018.91
2022-09-29T00:41:18.114Z,98018.16
2022-09-29T00:41:35.956Z,98016.56
2022-09-29T00:41:47.909Z,98017.41
2022-09-29T00:41:59.874Z,98019.91
2022-09-29T00:42:13.021Z,98024.28
2022-09-29T00:42:25.463Z,98017.41
2022-09-29T00:42:37.525Z,98008.88
2022-09-29T00:42:49.527Z,98016.66
2022-09-29T00:43:01.554Z,98020.94
2022-09-29T00:43:21.695Z,98014.06
2022-09-29T00:43:55.297Z,98015.75
2022-09-29T00:44:45.624Z,98017.56
2022-09-29T00:45:03.216Z,98010.56
2022-09-29T00:45:24.245Z,98013.91
2022-09-29T00:45:36.620Z,98017.25
2022-09-29T00:45:51.199Z,98009.53
2022-09-29T00:46:03.387Z,98016.38
2022-09-29T00:46:19.131Z,98017.31
2022-09-29T00:46:37.224Z,98014.72
2022-09-29T00:47:03.154Z,98020.75
2022-09-29T00:47:17.994Z,98017.25
2022-09-29T00:47:33.325Z,98012.06
2022-09-29T00:47:49.501Z,98012.88
2022-09-29T00:48:14.563Z,98012.06
2022-09-29T00:48:32.533Z,98013.72
2022-09-29T00:48:46.863Z,98013.66
2022-09-29T00:49:05.866Z,98015.41
2022-09-29T00:49:23.618Z,98015.41
2022-09-29T00:50:01.825Z,98006.94
2022-09-29T00:50:27.447Z,98013.91
2022-09-29T00:50:47.380Z,98005.38
2022-09-29T00:50:59.923Z,98013.16
2022-09-29T00:51:12.170Z,98011.31
2022-09-29T00:51:26.711Z,98009.63
2022-09-29T00:51:40.472Z,98013.03
2022-09-29T00:51:59.373Z,98009.53
2022-09-29T00:52:17.009Z,98012.22
2022-09-29T00:52:40.982Z,98015.75
2022-09-29T00:53:01.817Z,98004.50
2022-09-29T00:53:20.577Z,98010.56
2022-09-29T00:53:34.391Z,98010.56
2022-09-29T00:53:48.078Z,98008.88
2022-09-29T00:54:00.958Z,98010.69
2022-09-29T00:54:13.648Z,98003.69
2022-09-29T00:54:30.786Z,98002.03
2022-09-29T00:54:49.525Z,98013.28
2022-09-29T00:55:07.201Z,98003.84
2022-09-29T00:55:37.780Z,98005.69
2022-09-29T00:56:09.109Z,98011.94
2022-09-29T00:56:21.399Z,98006.00
2022-09-29T00:56:35.302Z,98004.34
2022-09-29T00:56:48.906Z,98009.53
2022-09-29T00:57:02.921Z,98010.34
2022-09-29T00:57:17.857Z,98008.59
2022-09-29T00:57:37.180Z,98005.16
2022-09-29T00:57:57.387Z,98010.44
2022-09-29T00:58:15.657Z,98003.41
2022-09-29T00:58:35.553Z,98006.00
2022-09-29T00:58:56.618Z,98007.75
2022-09-29T00:59:15.577Z,98007.69
2022-09-29T00:59:40.159Z,98014.72
2022-09-29T01:00:04.326Z,98005.41
2022-09-29T01:00:17.180Z,98008.91
2022-09-29T01:00:29.649Z,98004.66
2022-09-29T01:00:43.748Z,98006.50
2022-09-29T01:00:55.865Z,98009.03
2022-09-29T01:01:08.727Z,98004.66
2022-09-29T01:01:26.840Z,98010.00
2022-09-29T01:01:38.947Z,98002.41
2022-09-29T01:01:52.408Z,98003.16
2022-09-29T01:02:06.189Z,98004.91
2022-09-29T01:02:19.814Z,98007.59
2022-09-29T01:02:35.501Z,98005.81
2022-09-29T01:02:52.093Z,98012.69
2022-09-29T01:03:15.450Z,98010.00
2022-09-29T01:03:36.621Z,98009.09
2022-09-29T01:03:49.569Z,98005.56
2022-09-29T01:04:11.032Z,98010.00
2022-09-29T01:04:23.665Z,98004.81
2022-09-29T01:04:35.874Z,98003.16
2022-09-29T01:04:52.820Z,98004.66
2022-09-29T01:05:10.746Z,98008.91
2022-09-29T01:05:30.375Z,98011.50
2022-09-29T01:05:50.174Z,98005.66
2022-09-29T01:06:10.307Z,98007.31
2022-09-29T01:06:32.098Z,98010.16
2022-09-29T01:06:51.579Z,98010.09
2022-09-29T01:07:03.836Z,98005.66
2022-09-29T01:07:15.847Z,98009.09
2022-09-29T01:07:28.355Z,98012.59
2022-09-29T01:07:41.286Z,98010.00
2022-09-29T01:07:53.624Z,98009.91
2022-09-29T01:08:34.108Z,98009.84
2022-09-29T01:08:59.404Z,98012.59
2022-09-29T01:09:15.995Z,98011.69
2022-09-29T01:09:32.174Z,98009.09
2022-09-29T01:09:44.289Z,98010.00
2022-09-29T01:09:57.786Z,98011.69
2022-09-29T01:10:11.156Z,98007.50
2022-09-29T01:10:24.647Z,98011.06
2022-09-29T01:10:38.794Z,98005.81
2022-09-29T01:10:52.167Z,98008.34
2022-09-29T01:11:05.343Z,98003.22
2022-09-29T01:11:20.081Z,98001.63
2022-09-29T01:11:32.614Z,98003.31
2022-09-29T01:11:44.819Z,98012.00
2022-09-29T01:12:00.954Z,98002.53
2022-09-29T01:12:12.901Z,98005.31
2022-09-29T01:12:24.892Z,98007.84
2022-09-29T01:12:37.024Z,98006.22
2022-09-29T01:12:49.616Z,98003.63
2022-09-29T01:13:02.154Z,98012.34
2022-09-29T01:13:15.008Z,98000.28
2022-09-29T01:13:27.017Z,98009.81
2022-09-29T01:13:40.082Z,98008.81
2022-09-29T01:13:54.604Z,98006.97
2022-09-29T01:14:09.272Z,97999.31
2022-09-29T01:14:22.002Z,98006.16
2022-09-29T01:14:36.825Z,98000.13
2022-09-29T01:14:49.354Z,98006.06
2022-09-29T01:15:01.500Z,98000.28
2022-09-29T01:15:16.156Z,98005.78
2022-09-29T01:15:29.876Z,98001.44
2022-09-29T01:15:41.933Z,98006.53
2022-09-29T01:15:53.963Z,98002.09
2022-09-29T01:16:06.182Z,98004.63
2022-09-29T01:16:18.219Z,98007.28
2022-09-29T01:16:32.368Z,98004.69
2022-09-29T01:16:44.687Z,98000.28
2022-09-29T01:16:56.812Z,97998.44
2022-09-29T01:17:08.874Z,98000.28
2022-09-29T01:17:21.851Z,98004.56
2022-09-29T01:17:34.035Z,98001.97
2022-09-29T01:17:47.410Z,97998.44
2022-09-29T01:17:59.484Z,98001.97
2022-09-29T01:18:11.760Z,98006.16
2022-09-29T01:18:24.482Z,98000.13
2022-09-29T01:18:36.872Z,98001.78
2022-09-29T01:18:48.939Z,98003.47
2022-09-29T01:19:06.720Z,98002.53
2022-09-29T01:19:22.942Z,97996.28
2022-09-29T01:20:04.794Z,97998.53
2022-09-29T01:20:22.484Z,97990.78
2022-09-29T01:20:43.352Z,97995.06
2022-09-29T01:21:13.069Z,97994.03
2022-09-29T01:21:51.173Z,97993.97
2022-09-29T01:22:26.104Z,97997.13
2022-09-29T01:23:02.819Z,97994.47
2022-09-29T01:23:40.281Z,97994.31
2022-09-29T01:24:30.938Z,97988.13
2022-09-29T01:24:57.320Z,97991.31
2022-09-29T01:25:41.385Z,97997.25
2022-09-29T01:26:11.887Z,97994.66
2022-09-29T01:27:01.775Z,97994.66
2022-09-29T01:27:34.932Z,97990.22
2022-09-29T01:27:55.507Z,97988.41
2022-09-29T01:28:31.859Z,97991.00
2022-09-29T01:28:46.417Z,97986.56
2022-09-29T01:29:36.689Z,97995.31
2022-09-29T01:30:15.375Z,97994.34
2022-09-29T01:31:14.844Z,97989.78
2022-09-29T01:31:41.289Z,97991.47
2022-09-29T01:32:14.602Z,97988.81
2022-09-29T01:32:44.819Z,97990.66
2022-09-29T01:33:21.562Z,97993.13
2022-09-29T01:33:54.536Z,97993.81
2022-09-29T01:34:17.291Z,97991.16
2022-09-29T01:34:39.157Z,97991.16
2022-09-29T01:35:04.246Z,97990.13
2022-09-29T01:35:24.816Z,97988.41
2022-09-29T01:35:42.926Z,97993.41
2022-09-29T01:36:04.555Z,98001.09
2022-09-29T01:36:19.089Z,97994.22
2022-09-29T01:36:53.917Z,97993.47
2022-09-29T01:37:16.957Z,97996.81
2022-09-29T01:37:51.105Z,97994.22
2022-09-29T01:38:10.324Z,98000.16
2022-09-29T01:38:54.453Z,97991.28
2022-09-29T01:39:15.644Z,98005.00
2022-09-29T01:39:42.032Z,97997.97
2022-09-29T01:40:09.111Z,97997.06
2022-09-29T01:40:29.641Z,97999.66
2022-09-29T01:40:57.453Z,98004.84
2022-09-29T01:41:35.341Z,97999.81
2022-09-29T01:41:55.446Z,97997.97
2022-09-29T01:42:13.585Z,97998.75
2022-09-29T01:42:32.616Z,97999.50
2022-09-29T01:43:04.712Z,98003.78
2022-09-29T01:43:32.103Z,98001.03
2022-09-29T01:43:53.873Z,98001.03
2022-09-29T01:44:24.903Z,97997.69
2022-09-29T01:44:46.849Z,97998.44
2022-09-29T01:45:02.681Z,98006.09
2022-09-29T01:45:33.049Z,98000.84
2022-09-29T01:45:57.191Z,98004.53
2022-09-29T01:46:18.263Z,97998.31
2022-09-29T01:46:30.231Z,98001.66
2022-09-29T01:46:56.365Z,98008.06
2022-09-29T01:47:13.076Z,98001.09
2022-09-29T01:47:35.470Z,97999.50
2022-09-29T01:47:54.511Z,98000.44
2022-09-29T01:48:11.929Z,97996.00
2022-09-29T01:48:31.630Z,97999.50
2022-09-29T01:48:49.229Z,98000.44
2022-09-29T01:49:03.060Z,98004.69
2022-09-29T01:49:17.988Z,98004.69
2022-09-29T01:49:33.669Z,98008.06
2022-09-29T01:49:50.237Z,97998.56
2022-09-29T01:50:11.532Z,97998.50
2022-09-29T01:50:35.551Z,98008.81
2022-09-29T01:50:51.157Z,98002.69
2022-09-29T01:51:09.769Z,98010.31
2022-09-29T01:51:29.319Z,98006.84
2022-09-29T01:51:49.327Z,98011.88
2022-09-29T01:52:07.770Z,98007.59
2022-09-29T01:52:24.678Z,98000.84
2022-09-29T01:52:42.669Z,98009.38
2022-09-29T01:53:01.721Z,98004.09
2022-09-29T01:53:25.798Z,98005.28
2022-09-29T01:53:43.077Z,98009.56
2022-09-29T01:54:01.028Z,98009.38
2022-09-29T01:54:19.747Z,98004.09
2022-09-29T01:54:44.086Z,98003.09
2022-09-29T01:55:07.576Z,98001.16
2022-09-29T01:55:23.659Z,98008.00
2022-09-29T01:55:41.961Z,98008.13
2022-09-29T01:56:01.666Z,98006.28
2022-09-29T01:56:21.967Z,98003.69
2022-09-29T01:56:33.943Z,98008.88
2022-09-29T01:56:59.578Z,98009.69
2022-09-29T01:57:33.442Z,98007.38
2022-09-29T01:57:51.478Z,98005.53
2022-09-29T01:58:09.061Z,98009.78
2022-09-29T01:58:42.955Z,98009.97
2022-09-29T01:59:01.954Z,98007.53
2022-09-29T01:59:26.276Z,98012.56
2022-09-29T01:59:45.596Z,98011.69
2022-09-29T02:00:07.567Z,98010.13
2022-09-29T02:00:23.775Z,98009.03
2022-09-29T02:00:41.987Z,98007.19
2022-09-29T02:01:00.263Z,98010.72
2022-09-29T02:01:15.250Z,98008.00
2022-09-29T02:01:34.605Z,98007.03
2022-09-29T02:01:50.238Z,98017.28
2022-09-29T02:02:10.020Z,98009.44
2022-09-29T02:02:30.545Z,98017.06
2022-09-29T02:03:06.082Z,98009.34
2022-09-29T02:03:32.827Z,98010.19
2022-09-29T02:04:07.655Z,98008.53
2022-09-29T02:04:29.645Z,98010.38
2022-09-29T02:04:46.834Z,98007.84
2022-09-29T02:05:03.366Z,98018.31
2022-09-29T02:05:27.910Z,98015.03
2022-09-29T02:05:47.811Z,98016.13
2022-09-29T02:06:04.676Z,98014.41
2022-09-29T02:06:28.884Z,98014.22
2022-09-29T02:07:00.194Z,98014.22
2022-09-29T02:07:28.975Z,98014.81
2022-09-29T02:07:44.237Z,98013.88
2022-09-29T02:08:00.402Z,98020.75
2022-09-29T02:08:32.694Z,98015.56
2022-09-29T02:08:54.355Z,98019.88
2022-09-29T02:09:15.742Z,98008.69
2022-09-29T02:09:34.412Z,98019.25
2022-09-29T02:09:52.152Z,98015.72
2022-09-29T02:10:17.622Z,98015.72
2022-09-29T02:10:35.003Z,98016.53
2022-09-29T02:11:01.024Z,98015.56
2022-09-29T02:11:14.436Z,98017.22
2022-09-29T02:11:27.841Z,98012.03
2022-09-29T02:11:42.731Z,98011.19
2022-09-29T02:11:58.251Z,98010.38
2022-09-29T02:12:17.491Z,98016.47
2022-09-29T02:12:32.663Z,98021.66
2022-09-29T02:12:47.044Z,98015.56
2022-09-29T02:13:02.592Z,98017.28
2022-09-29T02:13:16.514Z,98015.72
2022-09-29T02:13:34.381Z,98016.13
2022-09-29T02:13:55.121Z,98018.66
2022-09-29T02:14:18.966Z,98018.44
2022-09-29T02:14:38.170Z,98020.16
2022-09-29T02:14:52.312Z,98020.25
2022-09-29T02:15:09.648Z,98014.91
2022-09-29T02:15:27.448Z,98023.44
2022-09-29T02:15:46.642Z,98018.09
2022-09-29T02:16:01.073Z,98019.75
2022-09-29T02:16:17.758Z,98023.09
2022-09-29T02:16:35.125Z,98009.72
2022-09-29T02:16:52.545Z,98017.41
2022-09-29T02:17:21.161Z,98021.59
2022-09-29T02:17:38.675Z,98021.59
2022-09-29T02:17:53.111Z,98019.94
2022-09-29T02:18:16.370Z,98015.84
2022-09-29T02:18:42.093Z,98020.09
2022-09-29T02:18:58.815Z,98016.06
2022-09-29T02:19:19.278Z,98017.22
2022-09-29T02:19:36.845Z,98015.50
2022-09-29T02:19:52.064Z,98018.56
2022-09-29T02:20:04.819Z,98019.09
2022-09-29T02:20:16.987Z,98018.72
2022-09-29T02:20:29.228Z,98020.91
2022-09-29T02:20:41.260Z,98016.19
2022-09-29T02:20:53.206Z,98021.00
2022-09-29T02:21:05.346Z,98021.00
2022-09-29T02:21:17.397Z,98018.16
2022-09-29T02:21:29.352Z,98023.34
2022-09-29T02:21:41.449Z,98023.78
2022-09-29T02:21:54.555Z,98014.91
2022-09-29T02:22:06.709Z,98018.84
2022-09-29T02:22:19.825Z,98023.81
2022-09-29T02:22:32.618Z,98016.63
2022-09-29T02:22:45.034Z,98022.41
2022-09-29T02:22:57.852Z,98024.75
2022-09-29T02:23:10.605Z,98022.91
2022-09-29T02:23:22.620Z,98020.94
2022-09-29T02:23:34.730Z,98020.00
2022-09-29T02:23:46.713Z,98018.91
2022-09-29T02:23:58.799Z,98023.94
2022-09-29T02:24:12.511Z,98016.06
2022-09-29T02:24:25.269Z,98020.25
2022-09-29T02:24:37.318Z,98014.91
2022-09-29T02:24:54.655Z,98019.19
2022-09-29T02:25:11.245Z,98023.28
2022-09-29T02:25:24.173Z,98022.25
2022-09-29T02:25:39.303Z,98022.94
2022-09-29T02:25:52.378Z,98018.50
2022-09-29T02:26:04.398Z,98016.59
2022-09-29T02:26:17.916Z,98015.31
2022-09-29T02:26:34.479Z,98024.19
2022-09-29T02:26:47.444Z,98025.28
2022-09-29T02:27:00.160Z,98018.56
2022-09-29T02:27:12.812Z,98022.69
2022-09-29T02:27:28.666Z,98026.09
2022-09-29T02:27:41.257Z,98021.75
2022-09-29T02:27:53.620Z,98019.25
2022-09-29T02:28:07.421Z,98024.75
2022-09-29T02:28:19.545Z,98021.41
2022-09-29T02:28:31.744Z,98024.41
2022-09-29T02:28:45.228Z,98022.06
2022-09-29T02:28:57.592Z,98027.16
2022-09-29T02:29:09.774Z,98030.66
2022-09-29T02:29:21.788Z,98021.75
2022-09-29T02:29:36.057Z,98023.59
2022-09-29T02:29:48.806Z,98027.19
2022-09-29T02:30:00.903Z,98026.50
2022-09-29T02:30:13.106Z,98027.34
2022-09-29T02:30:25.141Z,98026.81
2022-09-29T02:30:37.181Z,98026.69
2022-09-29T02:30:50.862Z,98026.69
2022-09-29T02:31:03.678Z,98025.81
2022-09-29T02:31:17.003Z,98030.94
2022-09-29T02:31:29.948Z,98026.81
2022-09-29T02:31:44.279Z,98023.66
2022-09-29T02:32:01.311Z,98028.66
2022-09-29T02:32:14.175Z,98037.81
2022-09-29T02:32:27.553Z,98032.63
2022-09-29T02:32:39.842Z,98026.06
2022-09-29T02:32:51.846Z,98032.19
2022-09-29T02:33:03.891Z,98033.25
2022-09-29T02:33:24.089Z,98029.91
2022-09-29T02:33:36.104Z,98024.09
2022-09-29T02:33:48.052Z,98025.03
2022-09-29T02:34:02.151Z,98031.56
2022-09-29T02:34:18.010Z,98033.25
2022-09-29T02:34:41.252Z,98029.72
2022-09-29T02:34:55.055Z,98027.75
2022-09-29T02:35:12.660Z,98031.81
2022-09-29T02:35:30.154Z,98025.56
2022-09-29T02:35:56.995Z,98026.06
2022-09-29T02:36:42.334Z,98024.84
2022-09-29T02:37:06.438Z,98025.00
2022-09-29T02:37:52.522Z,98028.81
2022-09-29T02:38:12.194Z,98025.63
2022-09-29T02:39:04.018Z,98028.22
2022-09-29T02:39:54.172Z,98036.75
2022-09-29T02:40:18.569Z,98025.31
2022-09-29T02:40:54.881Z,98026.00
2022-09-29T02:41:32.090Z,98025.75
2022-09-29T02:42:03.914Z,98023.78
2022-09-29T02:42:27.721Z,98021.97
2022-09-29T02:42:58.379Z,98028.22
2022-09-29T02:43:28.864Z,98026.00
2022-09-29T02:44:12.139Z,98023.97
2022-09-29T02:44:50.640Z,98030.66
2022-09-29T02:45:08.421Z,98024.09
2022-09-29T02:45:25.916Z,98028.59
2022-09-29T02:46:02.055Z,98022.72
2022-09-29T02:46:44.256Z,98030.88
2022-09-29T02:47:04.158Z,98020.75
2022-09-29T02:47:42.381Z,98024.72
2022-09-29T02:48:21.191Z,98026.13
2022-09-29T02:48:55.332Z,98021.50
2022-09-29T02:49:34.750Z,98023.59
2022-09-29T02:50:22.067Z,98019.78
2022-09-29T02:50:58.697Z,98027.22
2022-09-29T02:51:20.167Z,98027.22
2022-09-29T02:51:41.720Z,98033.75
2022-09-29T02:52:02.703Z,98034.44
2022-09-29T02:52:30.685Z,98029.03
2022-09-29T02:52:45.435Z,98032.59
2022-09-29T02:53:03.238Z,98026.59
2022-09-29T02:53:24.004Z,98026.59
2022-09-29T02:53:38.955Z,98026.59
2022-09-29T02:54:31.907Z,98029.91
2022-09-29T02:55:01.583Z,98024.13
2022-09-29T02:55:25.693Z,98031.53
2022-09-29T02:55:50.881Z,98028.19
2022-09-29T02:56:27.436Z,98023.16
2022-09-29T02:56:54.419Z,98022.66
2022-09-29T02:57:39.440Z,98027.91
2022-09-29T02:57:58.945Z,98025.31
2022-09-29T02:58:23.668Z,98025.19
2022-09-29T02:59:01.418Z,98022.94
2022-09-29T02:59:20.404Z,98025.31
2022-09-29T02:59:50.939Z,98030.44
2022-09-29T03:00:10.881Z,98021.69
2022-09-29T03:00:26.566Z,98023.22
2022-09-29T03:00:39.918Z,98031.56
2022-09-29T03:00:54.176Z,98023.66
2022-09-29T03:01:07.650Z,98031.25
2022-09-29T03:01:19.959Z,98025.09
2022-09-29T03:01:33.906Z,98024.03
2022-09-29T03:01:51.223Z,98026.31
2022-09-29T03:02:03.188Z,98027.91
2022-09-29T03:02:16.494Z,98021.72
2022-09-29T03:02:28.482Z,98029.16
2022-09-29T03:02:42.163Z,98029.84
2022-09-29T03:02:54.167Z,98027.13
2022-09-29T03:03:06.183Z,98026.25
2022-09-29T03:03:18.227Z,98024.34
2022-09-29T03:03:30.248Z,98022.53
2022-09-29T03:03:43.162Z,98024.22
2022-09-29T03:03:55.288Z,98025.72
2022-09-29T03:04:08.261Z,98028.13
2022-09-29T03:04:22.504Z,98026.31
2022-09-29T03:04:34.473Z,98022.72
2022-09-29T03:04:46.455Z,98026.91
2022-09-29T03:04:58.531Z,98028.56
2022-09-29T03:05:17.060Z,98026.16
2022-09-29T03:05:29.297Z,98022.19
2022-09-29T03:05:41.274Z,98025.88
2022-09-29T03:05:53.587Z,98019.03
2022-09-29T03:06:05.772Z,98023.19
2022-09-29T03:06:19.433Z,98027.69
2022-09-29T03:06:31.448Z,98022.53
2022-09-29T03:06:45.800Z,98027.88
2022-09-29T03:06:58.100Z,98026.19
2022-09-29T03:07:10.043Z,98023.84
2022-09-29T03:07:22.359Z,98025.69
2022-09-29T03:07:37.032Z,98020.97
2022-09-29T03:07:49.370Z,98019.28
2022-09-29T03:08:01.555Z,98021.28
2022-09-29T03:08:15.942Z,98025.56
2022-09-29T03:08:27.889Z,98016.25
2022-09-29T03:08:39.878Z,98022.28
2022-09-29T03:08:53.973Z,98027.31
2022-09-29T03:09:05.992Z,98017.72
2022-09-29T03:09:18.212Z,98019.13
2022-09-29T03:09:32.303Z,98017.53
2022-09-29T03:09:45.009Z,98027.00
2022-09-29T03:09:57.114Z,98022.97
2022-09-29T03:10:12.001Z,98018.91
2022-09-29T03:10:27.975Z,98026.25
2022-09-29T03:10:42.219Z,98023.66
2022-09-29T03:10:54.220Z,98022.72
2022-09-29T03:11:06.229Z,98014.88
2022-09-29T03:11:20.800Z,98022.72
2022-09-29T03:11:32.770Z,98015.72
2022-09-29T03:11:44.755Z,98015.66
2022-09-29T03:11:56.789Z,98018.09
2022-09-29T03:12:08.769Z,98014.66
2022-09-29T03:12:20.788Z,98018.91
2022-09-29T03:12:33.039Z,98023.97
2022-09-29T03:12:46.675Z,98009.31
2022-09-29T03:12:58.650Z,98016.84
2022-09-29T03:13:10.658Z,98019.38
2022-09-29T03:13:22.630Z,98015.78
2022-09-29T03:13:34.604Z,98021.63
2022-09-29T03:13:46.550Z,98021.63
2022-09-29T03:13:58.510Z,98013.88
2022-09-29T03:14:10.621Z,98019.81
2022-09-29T03:14:22.624Z,98019.75
2022-09-29T03:14:34.588Z,98020.31
2022-09-29T03:14:46.809Z,98021.94
2022-09-29T03:14:58.825Z,98022.53
2022-09-29T03:15:12.563Z,98024.13
2022-09-29T03:15:24.638Z,98022.38
2022-09-29T03:15:39.219Z,98018.84
2022-09-29T03:15:51.341Z,98026.47
2022-09-29T03:16:03.456Z,98026.41
2022-09-29T03:16:18.317Z,98016.88
2022-09-29T03:16:30.474Z,98022.81
2022-09-29T03:16:43.690Z,98025.47
2022-09-29T03:16:55.731Z,98023.72
2022-09-29T03:17:07.687Z,98018.38
2022-09-29T03:17:19.678Z,98020.91
2022-09-29T03:17:31.674Z,98021.72
2022-09-29T03:17:54.001Z,98023.50
2022-09-29T03:18:10.057Z,98024.03
2022-09-29T03:18:23.651Z,98023.28
2022-09-29T03:18:35.627Z,98026.03
2022-09-29T03:18:47.590Z,98025.88
2022-09-29T03:18:59.608Z,98022.53
2022-09-29T03:19:11.585Z,98020.03
2022-09-29T03:19:23.569Z,98021.94
2022-09-29T03:19:35.585Z,98023.00
2022-09-29T03:19:47.781Z,98017.97
2022-09-29T03:19:59.817Z,98026.69
2022-09-29T03:20:12.045Z,98020.75
2022-09-29T03:20:24.578Z,98019.97
2022-09-29T03:20:36.559Z,98021.81
2022-09-29T03:20:48.596Z,98019.13
2022-09-29T03:21:00.578Z,98027.00
2022-09-29T03:21:12.557Z,98020.06